Terminal Aerodrome Forecast
Issued by NWS

Home | Current Version | Previous Version | Text Only | Print | Product List | Glossary On
Versions: 1 2 3 4 5 6 7 8 9 10 11 12 13 14 15 16 17 18 19
000
FTUS43 KIWX 290500
TAFSBN
TAF
KSBN 290535Z 2906/3006 17009KT P6SM BKN150
     FM291500 18012KT P6SM BKN025
     FM291800 19013KT 6SM -DZ BR OVC015=

USA.gov is the U.S. government's official web portal to all federal, state and local government web resources and services.